createdAt,value
2017-08-09T16:00:32.243Z,146
2017-08-09T16:01:33.664Z,146
2017-08-09T16:02:55.295Z,140
2017-08-09T16:03:56.716Z,146
2017-08-09T16:05:18.328Z,135
2017-08-09T16:06:19.748Z,146
2017-08-09T16:07:41.300Z,140
2017-08-09T16:08:42.720Z,135
2017-08-09T16:10:04.336Z,135
2017-08-09T16:11:05.753Z,140
2017-08-09T16:12:27.800Z,146
2017-08-09T16:13:29.215Z,146
2017-08-09T16:14:51.536Z,140
2017-08-09T16:15:52.880Z,146
2017-08-09T16:17:14.414Z,140
2017-08-09T16:18:15.833Z,146
2017-08-09T16:19:37.387Z,146
2017-08-09T16:20:38.803Z,146
2017-08-09T16:22:00.417Z,146
2017-08-09T16:23:01.839Z,146
2017-08-09T16:24:23.389Z,146
2017-08-09T16:25:24.807Z,140
2017-08-09T16:26:46.422Z,140
2017-08-09T16:27:47.843Z,135
2017-08-09T16:29:10.492Z,140
2017-08-09T16:30:11.907Z,146
2017-08-09T16:31:33.448Z,146
2017-08-09T16:32:34.870Z,146
2017-08-09T16:33:56.420Z,146
2017-08-09T16:34:57.839Z,146
2017-08-09T16:36:19.455Z,146
2017-08-09T16:37:20.889Z,140
2017-08-09T16:38:42.529Z,140
2017-08-09T16:39:43.947Z,140
2017-08-09T16:41:05.560Z,140
2017-08-09T16:42:06.982Z,140
2017-08-09T16:43:28.530Z,146
2017-08-09T16:44:29.950Z,157
2017-08-09T16:45:51.565Z,168
2017-08-09T16:46:52.985Z,168
2017-08-09T16:48:14.536Z,157
2017-08-09T16:49:15.956Z,157
2017-08-09T16:50:37.570Z,151
2017-08-09T16:51:38.992Z,151
2017-08-09T16:53:00.539Z,140
2017-08-09T16:54:01.961Z,135
2017-08-09T16:55:23.982Z,140
2017-08-09T16:56:25.402Z,135
2017-08-09T16:57:46.937Z,135
2017-08-09T16:58:48.357Z,135
2017-08-09T17:00:09.932Z,135
2017-08-09T17:01:11.352Z,129
2017-08-09T17:02:32.943Z,129
2017-08-09T17:03:34.355Z,129
2017-08-09T17:04:55.906Z,129
2017-08-09T17:05:57.327Z,123
2017-08-09T17:07:18.945Z,123
2017-08-09T17:08:20.364Z,123
2017-08-09T17:09:41.909Z,123
2017-08-09T17:10:43.331Z,123
2017-08-09T17:12:04.944Z,123
2017-08-09T17:13:06.365Z,123
2017-08-09T17:14:27.915Z,123
2017-08-09T17:15:29.334Z,123
2017-08-09T17:16:50.951Z,123
2017-08-09T17:17:52.371Z,123
2017-08-09T17:19:13.923Z,129
2017-08-09T17:20:15.343Z,129
2017-08-09T17:21:36.954Z,129
2017-08-09T17:22:38.377Z,129
2017-08-09T17:23:59.922Z,129
2017-08-09T17:25:01.346Z,123
2017-08-09T17:26:23.367Z,123
2017-08-09T17:27:24.786Z,118
2017-08-09T17:28:46.346Z,118
2017-08-09T17:29:47.764Z,118
2017-08-09T17:31:09.373Z,112
2017-08-09T17:32:10.793Z,112
2017-08-09T17:33:32.341Z,112
2017-08-09T17:34:33.758Z,106
2017-08-09T17:35:55.375Z,112
2017-08-09T17:36:56.798Z,106
2017-08-09T17:38:18.346Z,106
2017-08-09T17:39:19.766Z,106
2017-08-09T17:40:41.379Z,106
2017-08-09T17:41:42.830Z,101
2017-08-09T17:43:04.451Z,101
2017-08-09T17:44:05.871Z,101
2017-08-09T17:45:27.484Z,101
2017-08-09T17:46:28.903Z,95
2017-08-09T17:47:50.437Z,95
2017-08-09T17:48:51.855Z,95
2017-08-09T17:50:13.404Z,95
2017-08-09T17:51:14.823Z,90
2017-08-09T17:52:36.437Z,90
2017-08-09T17:53:37.857Z,90
2017-08-09T17:54:59.919Z,90
2017-08-09T17:56:01.337Z,90
2017-08-09T17:57:23.363Z,84
2017-08-09T17:59:14.271Z,84
2017-08-09T18:01:34.603Z,78
2017-08-09T18:02:36.015Z,78
2017-08-09T18:03:57.543Z,73
2017-08-09T18:04:58.963Z,73
2017-08-09T18:06:20.472Z,67
2017-08-09T18:07:21.889Z,67
2017-08-09T18:08:43.418Z,67
2017-08-09T18:09:44.834Z,67
2017-08-09T18:11:06.340Z,67
2017-08-09T18:12:07.756Z,61
2017-08-09T18:13:29.297Z,61
2017-08-09T18:14:30.720Z,61
2017-08-09T18:15:52.224Z,61
2017-08-09T18:16:53.641Z,61
2017-08-09T18:18:15.170Z,56
2017-08-09T19:03:43.376Z,5
2017-08-09T19:04:44.794Z,5
2017-08-09T19:06:06.298Z,5
2017-08-09T19:07:07.707Z,5
2017-08-09T19:08:29.253Z,5
2017-08-09T19:09:30.666Z,5
2017-08-09T19:10:52.166Z,5
2017-08-09T19:11:53.583Z,0
2017-08-09T19:13:15.082Z,0
2017-08-09T19:14:16.496Z,0
2017-08-09T19:15:38.012Z,0
2017-08-09T19:16:39.427Z,0
2017-08-09T19:18:00.932Z,0
2017-08-09T19:19:02.374Z,0
2017-08-09T19:20:23.950Z,0
2017-08-09T19:21:25.429Z,0
2017-08-09T19:22:46.946Z,0
2017-08-09T19:23:48.378Z,0
2017-08-09T19:25:09.904Z,0
2017-08-09T19:26:11.338Z,0
2017-08-09T19:27:32.842Z,0
2017-08-09T21:37:21.480Z,0
2017-08-09T21:38:22.890Z,0
2017-08-09T21:39:44.405Z,0
2017-08-09T21:40:45.817Z,0
2017-08-09T21:42:07.311Z,0
2017-08-09T21:43:08.718Z,0
2017-08-09T21:44:30.235Z,0
2017-08-09T21:45:31.651Z,0
2017-08-09T21:46:53.140Z,0
2017-08-09T21:47:54.548Z,0
2017-08-09T21:49:16.044Z,0
2017-08-09T21:50:17.452Z,0
2017-08-09T21:51:38.970Z,0
2017-08-09T21:52:40.382Z,0
2017-08-09T21:54:01.878Z,0
2017-08-09T21:55:03.287Z,0
2017-08-09T21:56:24.805Z,0
2017-08-09T21:57:26.215Z,0
2017-08-09T21:58:47.716Z,0
2017-08-09T21:59:49.126Z,0
2017-08-09T22:01:10.641Z,0
2017-08-09T22:02:12.052Z,0
2017-08-09T22:03:33.554Z,0
2017-08-09T22:04:34.962Z,0
2017-08-09T22:05:56.481Z,0
2017-08-09T22:06:57.893Z,0
2017-08-09T22:08:19.392Z,0
2017-08-09T22:09:20.802Z,0
2017-08-09T22:10:42.320Z,0
2017-08-09T22:11:43.734Z,0
2017-08-09T22:13:05.232Z,0
2017-08-09T22:14:06.640Z,0
2017-08-09T22:15:28.157Z,0
2017-08-09T22:16:29.573Z,0
2017-08-09T22:17:51.070Z,0
2017-08-09T22:18:52.491Z,0
2017-08-09T22:20:14.000Z,0
2017-08-09T22:21:15.411Z,0
2017-08-09T22:22:36.906Z,0
2017-08-09T22:23:38.320Z,0
2017-08-09T22:24:59.834Z,0
2017-08-09T22:26:01.246Z,0
2017-08-09T22:27:23.738Z,0
2017-08-09T22:28:25.148Z,0
2017-08-09T22:29:46.673Z,0
2017-08-09T22:30:48.107Z,0
2017-08-09T22:32:09.604Z,0
2017-08-09T22:33:11.014Z,0
2017-08-09T22:34:32.544Z,0
2017-08-09T22:35:33.952Z,0
2017-08-09T22:36:55.447Z,0
2017-08-09T22:37:56.857Z,0
2017-08-09T22:39:18.354Z,0
2017-08-09T22:40:19.776Z,0
2017-08-09T22:41:41.293Z,0
2017-08-09T22:42:42.704Z,0
2017-08-09T22:44:04.211Z,0
2017-08-09T22:45:05.622Z,0
2017-08-09T22:46:27.140Z,0
2017-08-09T22:47:28.550Z,0
2017-08-09T22:48:50.055Z,0
2017-08-09T22:49:51.461Z,0
2017-08-09T22:51:12.979Z,0
2017-08-09T22:52:14.389Z,0
2017-08-09T22:53:35.891Z,0
2017-08-09T22:54:37.302Z,0
2017-08-09T22:55:58.819Z,0
2017-08-09T22:57:00.230Z,0
2017-08-09T22:58:21.730Z,0
2017-08-09T22:59:23.258Z,0
2017-08-09T23:00:44.781Z,0
2017-08-09T23:01:46.476Z,0
2017-08-09T23:03:08.003Z,0
2017-08-09T23:04:09.412Z,0
2017-08-09T23:05:30.928Z,0
2017-08-09T23:06:32.340Z,0
2017-08-09T23:07:53.835Z,0
2017-08-09T23:08:55.250Z,0
2017-08-09T23:10:16.770Z,0
2017-08-09T23:11:18.388Z,0
2017-08-09T23:12:39.922Z,0
2017-08-09T23:13:41.344Z,0
2017-08-09T23:15:02.914Z,0
2017-08-09T23:16:04.324Z,0
2017-08-09T23:17:25.821Z,0
2017-08-09T23:18:27.236Z,0
2017-08-09T23:19:48.752Z,0
2017-08-09T23:20:50.175Z,0
2017-08-09T23:22:11.676Z,0
2017-08-09T23:23:13.103Z,0
2017-08-09T23:24:34.638Z,0
2017-08-09T23:25:36.086Z,0
2017-08-09T23:26:57.627Z,0
2017-08-09T23:27:59.089Z,0
2017-08-09T23:29:20.605Z,0
2017-08-09T23:30:22.110Z,0
2017-08-09T23:31:43.643Z,0
2017-08-09T23:32:45.066Z,0
2017-08-09T23:34:06.586Z,0
2017-08-09T23:35:08.034Z,0
2017-08-09T23:36:29.636Z,0
2017-08-09T23:37:31.047Z,0
2017-08-09T23:38:52.621Z,0
2017-08-09T23:39:54.094Z,0
2017-08-09T23:41:15.610Z,0
2017-08-09T23:42:17.147Z,0
2017-08-09T23:43:38.633Z,0
2017-08-09T23:44:40.044Z,0
2017-08-09T23:46:01.609Z,0
2017-08-09T23:47:03.171Z,0
2017-08-09T23:48:24.730Z,0
2017-08-09T23:49:26.146Z,0
2017-08-09T23:50:47.763Z,0
2017-08-09T23:51:49.307Z,0
2017-08-09T23:53:10.805Z,0
2017-08-09T23:54:12.217Z,0
2017-08-09T23:55:33.739Z,0
2017-08-09T23:56:35.263Z,0
2017-08-09T23:57:56.846Z,0
2017-08-09T23:58:58.264Z,0
